createdAt,value
2022-10-13T00:00:20.608Z,1013.35
2022-10-13T00:01:20.655Z,1013.32
2022-10-13T00:02:20.950Z,1013.32
2022-10-13T00:03:20.583Z,1013.36
2022-10-13T00:04:20.532Z,1013.32
2022-10-13T00:05:20.544Z,1013.36
2022-10-13T00:06:20.521Z,1013.34
2022-10-13T00:07:20.507Z,1013.36
2022-10-13T00:08:20.508Z,1013.38
2022-10-13T00:09:20.486Z,1013.37
2022-10-13T00:10:20.477Z,1013.39
2022-10-13T00:11:20.464Z,1013.34
2022-10-13T00:12:20.911Z,1013.35
2022-10-13T00:13:20.440Z,1013.32
2022-10-13T00:14:20.451Z,1013.38
2022-10-13T00:15:20.424Z,1013.33
2022-10-13T00:16:20.428Z,1013.29
2022-10-13T00:17:20.390Z,1013.29
2022-10-13T00:18:20.386Z,1013.32
2022-10-13T00:19:20.383Z,1013.31
2022-10-13T00:20:20.394Z,1013.33
2022-10-13T00:21:20.364Z,1013.32
2022-10-13T00:22:20.916Z,1013.33
2022-10-13T00:23:20.360Z,1013.31
2022-10-13T00:24:20.317Z,1013.31
2022-10-13T00:25:20.313Z,1013.33
2022-10-13T00:26:20.305Z,1013.32
2022-10-13T00:27:20.288Z,1013.35
2022-10-13T00:28:20.292Z,1013.31
2022-10-13T00:29:20.263Z,1013.27
2022-10-13T00:30:20.252Z,1013.26
2022-10-13T00:31:20.246Z,1013.29
2022-10-13T00:32:20.647Z,1013.30
2022-10-13T00:33:20.214Z,1013.27
2022-10-13T00:34:20.205Z,1013.31
2022-10-13T00:35:20.198Z,1013.26
2022-10-13T00:36:20.190Z,1013.25
2022-10-13T00:37:20.173Z,1013.27
2022-10-13T00:38:20.172Z,1013.26
2022-10-13T00:39:20.156Z,1013.27
2022-10-13T00:40:20.130Z,1013.26
2022-10-13T00:41:20.133Z,1013.22
2022-10-13T00:42:20.565Z,1013.24
2022-10-13T00:43:20.123Z,1013.23
2022-10-13T00:44:20.133Z,1013.25
2022-10-13T00:45:20.087Z,1013.26
2022-10-13T00:46:20.083Z,1013.24
2022-10-13T00:47:20.058Z,1013.22
2022-10-13T00:48:20.191Z,1013.20
2022-10-13T00:49:20.042Z,1013.23
2022-10-13T00:50:20.042Z,1013.18
2022-10-13T00:51:20.006Z,1013.23
2022-10-13T00:52:20.270Z,1013.18
2022-10-13T00:53:20.004Z,1013.19
2022-10-13T00:54:19.982Z,1013.14
2022-10-13T00:55:19.974Z,1013.14
2022-10-13T00:56:19.954Z,1013.13
2022-10-13T00:57:19.949Z,1013.11
2022-10-13T00:58:19.937Z,1013.14
2022-10-13T00:59:19.931Z,1013.08
2022-10-13T01:00:19.929Z,1013.13
2022-10-13T01:01:19.904Z,1013.20
2022-10-13T01:02:20.444Z,1013.14
2022-10-13T01:03:19.894Z,1013.12
2022-10-13T01:04:19.913Z,1013.11
2022-10-13T01:05:19.872Z,1013.13
2022-10-13T01:06:23.423Z,1013.13
2022-10-13T01:07:19.846Z,1013.16
2022-10-13T01:08:19.825Z,1013.11
2022-10-13T01:09:19.827Z,1013.13
2022-10-13T01:10:19.804Z,1013.11
2022-10-13T01:11:19.814Z,1013.08
2022-10-13T01:12:20.182Z,1013.07
2022-10-13T01:13:19.799Z,1013.06
2022-10-13T01:14:19.758Z,1013.00
2022-10-13T01:15:19.745Z,1012.99
2022-10-13T01:16:19.754Z,1013.01
2022-10-13T01:17:19.736Z,1013.02
2022-10-13T01:18:19.719Z,1013.00
2022-10-13T01:19:19.728Z,1012.98
2022-10-13T01:20:19.708Z,1012.92
2022-10-13T01:21:19.676Z,1012.94
2022-10-13T01:22:20.037Z,1012.91
2022-10-13T01:23:19.655Z,1012.83
2022-10-13T01:24:19.648Z,1012.82
2022-10-13T01:25:19.652Z,1012.82
2022-10-13T01:26:19.630Z,1012.81
2022-10-13T01:27:19.617Z,1012.82
2022-10-13T01:28:19.736Z,1012.85
2022-10-13T01:29:19.596Z,1012.81
2022-10-13T01:30:19.588Z,1012.79
2022-10-13T01:31:19.563Z,1012.79
2022-10-13T01:32:19.909Z,1012.78
2022-10-13T01:33:19.564Z,1012.74
2022-10-13T01:34:19.543Z,1012.75
2022-10-13T01:35:19.532Z,1012.76
2022-10-13T01:36:19.561Z,1012.74
2022-10-13T01:37:19.504Z,1012.72
2022-10-13T01:38:19.493Z,1012.72
2022-10-13T01:39:19.481Z,1012.69
2022-10-13T01:40:19.479Z,1012.71
2022-10-13T01:41:19.460Z,1012.67
2022-10-13T01:42:19.821Z,1012.72
2022-10-13T01:43:19.440Z,1012.68
2022-10-13T01:44:19.429Z,1012.71
2022-10-13T01:45:19.422Z,1012.64
2022-10-13T01:46:19.400Z,1012.58
2022-10-13T01:47:19.388Z,1012.61
2022-10-13T01:48:19.390Z,1012.57
2022-10-13T01:49:19.384Z,1012.61
2022-10-13T01:50:19.364Z,1012.61
2022-10-13T01:51:19.354Z,1012.59
2022-10-13T01:52:19.825Z,1012.59
2022-10-13T01:53:19.331Z,1012.61
2022-10-13T01:54:19.321Z,1012.61
2022-10-13T01:55:19.305Z,1012.58
2022-10-13T01:56:19.299Z,1012.54
2022-10-13T01:57:19.298Z,1012.59
2022-10-13T01:58:19.290Z,1012.54
2022-10-13T01:59:19.261Z,1012.53
2022-10-13T02:00:19.263Z,1012.53
2022-10-13T02:01:19.239Z,1012.52
2022-10-13T02:02:19.770Z,1012.51
2022-10-13T02:03:19.218Z,1012.48
2022-10-13T02:04:19.225Z,1012.52
2022-10-13T02:05:19.208Z,1012.51
2022-10-13T02:06:19.191Z,1012.46
2022-10-13T02:07:19.174Z,1012.45
2022-10-13T02:08:19.175Z,1012.43
2022-10-13T02:09:19.160Z,1012.40
2022-10-13T02:10:19.161Z,1012.44
2022-10-13T02:11:19.134Z,1012.41
2022-10-13T02:12:19.551Z,1012.41
2022-10-13T02:13:19.111Z,1012.37
2022-10-13T02:14:19.096Z,1012.37
2022-10-13T02:15:19.093Z,1012.37
2022-10-13T02:16:19.078Z,1012.36
2022-10-13T02:17:19.055Z,1012.35
2022-10-13T02:18:19.048Z,1012.36
2022-10-13T02:19:19.052Z,1012.31
2022-10-13T02:20:19.049Z,1012.34
2022-10-13T02:21:19.013Z,1012.32
2022-10-13T02:22:19.332Z,1012.33
2022-10-13T02:23:18.989Z,1012.29
2022-10-13T02:24:19.113Z,1012.35
2022-10-13T02:25:18.971Z,1012.34
2022-10-13T02:26:18.971Z,1012.33
2022-10-13T02:27:18.980Z,1012.32
2022-10-13T02:28:19.018Z,1012.28
2022-10-13T02:29:18.924Z,1012.29
2022-10-13T02:30:18.918Z,1012.32
2022-10-13T02:31:18.917Z,1012.26
2022-10-13T02:32:19.350Z,1012.32
2022-10-13T02:33:18.891Z,1012.31
2022-10-13T02:34:18.893Z,1012.28
2022-10-13T02:35:18.866Z,1012.27
2022-10-13T02:36:18.859Z,1012.26
2022-10-13T02:37:18.837Z,1012.26
2022-10-13T02:38:18.837Z,1012.28
2022-10-13T02:39:18.835Z,1012.32
2022-10-13T02:40:18.831Z,1012.30
2022-10-13T02:41:18.805Z,1012.32
2022-10-13T02:42:19.335Z,1012.31
2022-10-13T02:43:18.791Z,1012.30
2022-10-13T02:44:18.758Z,1012.28
2022-10-13T02:45:18.767Z,1012.28
2022-10-13T02:46:18.768Z,1012.29
2022-10-13T02:47:18.724Z,1012.30
2022-10-13T02:48:18.726Z,1012.29
2022-10-13T02:49:18.726Z,1012.31
2022-10-13T02:50:18.701Z,1012.32
2022-10-13T02:51:18.688Z,1012.33
2022-10-13T02:52:19.003Z,1012.35
2022-10-13T02:53:18.665Z,1012.36
2022-10-13T02:54:18.658Z,1012.33
2022-10-13T02:55:18.672Z,1012.36
2022-10-13T02:56:18.660Z,1012.33
2022-10-13T02:57:18.641Z,1012.39
2022-10-13T02:58:18.601Z,1012.37
2022-10-13T02:59:18.603Z,1012.35
2022-10-13T03:00:18.586Z,1012.37
2022-10-13T03:01:18.614Z,1012.33
2022-10-13T03:02:19.291Z,1012.38
2022-10-13T03:03:18.564Z,1012.38
2022-10-13T03:04:18.550Z,1012.35
2022-10-13T03:05:18.537Z,1012.35
2022-10-13T03:06:18.517Z,1012.42
2022-10-13T03:07:18.505Z,1012.36
2022-10-13T03:08:18.519Z,1012.36
2022-10-13T03:09:18.500Z,1012.38
2022-10-13T03:10:18.498Z,1012.39
2022-10-13T03:11:18.474Z,1012.37
2022-10-13T03:12:19.017Z,1012.37
2022-10-13T03:13:18.448Z,1012.35
2022-10-13T03:14:18.436Z,1012.37
2022-10-13T03:15:18.444Z,1012.36
2022-10-13T03:16:18.411Z,1012.34
2022-10-13T03:17:18.405Z,1012.41
2022-10-13T03:18:18.404Z,1012.35
2022-10-13T03:19:18.378Z,1012.37
2022-10-13T03:20:18.365Z,1012.36
2022-10-13T03:21:18.378Z,1012.33
2022-10-13T03:22:18.689Z,1012.33
2022-10-13T03:23:18.331Z,1012.29
2022-10-13T03:24:18.322Z,1012.32
2022-10-13T03:25:18.330Z,1012.35
2022-10-13T03:26:18.312Z,1012.34
2022-10-13T03:27:18.294Z,1012.35
2022-10-13T03:28:18.411Z,1012.37
2022-10-13T03:29:18.318Z,1012.32
2022-10-13T03:30:18.276Z,1012.31
2022-10-13T03:31:18.293Z,1012.35
2022-10-13T03:32:18.707Z,1012.32
2022-10-13T03:33:18.223Z,1012.31
2022-10-13T03:34:18.252Z,1012.30
2022-10-13T03:35:18.209Z,1012.27
2022-10-13T03:36:18.189Z,1012.26
2022-10-13T03:37:18.203Z,1012.28
2022-10-13T03:38:18.175Z,1012.32
2022-10-13T03:39:18.155Z,1012.29
2022-10-13T03:40:18.155Z,1012.27
2022-10-13T03:41:18.145Z,1012.25
2022-10-13T03:42:18.697Z,1012.27
2022-10-13T03:43:18.119Z,1012.28
2022-10-13T03:44:18.198Z,1012.24
2022-10-13T03:45:18.101Z,1012.23
2022-10-13T03:46:18.089Z,1012.19
2022-10-13T03:47:18.102Z,1012.22
2022-10-13T03:48:18.061Z,1012.16
2022-10-13T03:49:18.044Z,1012.16
2022-10-13T03:50:18.063Z,1012.13
2022-10-13T03:51:18.029Z,1012.11
2022-10-13T03:52:18.329Z,1012.08
2022-10-13T03:53:18.014Z,1012.07
2022-10-13T03:54:17.996Z,1012.05
2022-10-13T03:55:18.012Z,1012.03
2022-10-13T03:56:17.969Z,1012.01
2022-10-13T03:57:17.975Z,1011.96
2022-10-13T03:58:17.945Z,1011.84
2022-10-13T03:59:17.934Z,1011.87
2022-10-13T04:00:18.041Z,1011.84
2022-10-13T04:01:18.145Z,1011.91
2022-10-13T04:02:18.275Z,1011.89
2022-10-13T04:03:17.898Z,1011.88
2022-10-13T04:04:17.912Z,1011.84
2022-10-13T04:05:17.871Z,1011.83
2022-10-13T04:06:17.863Z,1011.80
2022-10-13T04:07:17.918Z,1011.80
2022-10-13T04:08:17.842Z,1011.76
2022-10-13T04:09:17.845Z,1011.80
2022-10-13T04:10:17.811Z,1011.79
2022-10-13T04:11:17.798Z,1011.81
2022-10-13T04:12:20.798Z,1011.83
2022-10-13T04:13:17.774Z,1011.80
2022-10-13T04:14:17.764Z,1011.83
2022-10-13T04:15:17.768Z,1011.79
2022-10-13T04:16:17.791Z,1011.82
2022-10-13T04:17:17.733Z,1011.77
2022-10-13T04:18:17.729Z,1011.75
2022-10-13T04:19:17.721Z,1011.71
2022-10-13T04:20:17.703Z,1011.77
2022-10-13T04:21:17.696Z,1011.84
2022-10-13T04:22:18.113Z,1011.84
2022-10-13T04:23:17.682Z,1011.84
2022-10-13T04:24:17.664Z,1011.82
2022-10-13T04:25:17.689Z,1011.78
2022-10-13T04:26:17.649Z,1011.84
2022-10-13T04:27:17.620Z,1011.80
2022-10-13T04:28:17.667Z,1011.76
2022-10-13T04:29:17.609Z,1011.78
2022-10-13T04:30:17.593Z,1011.80
2022-10-13T04:31:17.607Z,1011.78
2022-10-13T04:32:18.004Z,1011.70
2022-10-13T04:33:17.564Z,1011.62
2022-10-13T04:34:17.552Z,1011.62
2022-10-13T04:35:17.563Z,1011.60
2022-10-13T04:36:17.552Z,1011.72
2022-10-13T04:37:17.515Z,1011.72
2022-10-13T04:38:17.507Z,1011.75
2022-10-13T04:39:17.491Z,1011.71
2022-10-13T04:40:17.485Z,1011.73
2022-10-13T04:41:17.471Z,1011.69
2022-10-13T04:42:17.899Z,1011.70
2022-10-13T04:43:17.451Z,1011.67
2022-10-13T04:44:17.440Z,1011.68
2022-10-13T04:45:17.438Z,1011.64
2022-10-13T04:46:17.421Z,1011.67
2022-10-13T04:47:17.404Z,1011.69
2022-10-13T04:48:17.414Z,1011.68
2022-10-13T04:49:17.384Z,1011.68
2022-10-13T04:50:17.368Z,1011.67
2022-10-13T04:51:17.364Z,1011.62
2022-10-13T04:52:17.656Z,1011.58
2022-10-13T04:53:19.329Z,1011.62
2022-10-13T04:54:17.333Z,1011.66
2022-10-13T04:55:17.309Z,1011.65
2022-10-13T04:56:17.318Z,1011.64
2022-10-13T04:57:17.293Z,1011.58
2022-10-13T04:58:17.289Z,1011.58
2022-10-13T04:59:17.279Z,1011.59
2022-10-13T05:00:17.264Z,1011.58
2022-10-13T05:01:21.473Z,1011.61
2022-10-13T05:02:17.528Z,1011.58
2022-10-13T05:03:17.227Z,1011.57
2022-10-13T05:04:17.238Z,1011.59
2022-10-13T05:05:17.234Z,1011.53
2022-10-13T05:06:17.213Z,1011.50
2022-10-13T05:07:18.548Z,1011.50
2022-10-13T05:08:17.165Z,1011.41
2022-10-13T05:09:17.175Z,1011.43
2022-10-13T05:10:17.183Z,1011.45
2022-10-13T05:11:17.167Z,1011.45
2022-10-13T05:12:17.344Z,1011.50
2022-10-13T05:13:17.118Z,1011.54
2022-10-13T05:14:17.110Z,1011.54
2022-10-13T05:15:17.123Z,1011.57
2022-10-13T05:16:17.104Z,1011.55
2022-10-13T05:17:17.084Z,1011.59
2022-10-13T05:18:17.063Z,1011.59
2022-10-13T05:19:17.051Z,1011.55
2022-10-13T05:20:17.080Z,1011.52
2022-10-13T05:21:17.051Z,1011.52
2022-10-13T05:22:17.267Z,1011.54
2022-10-13T05:23:17.017Z,1011.51
2022-10-13T05:24:17.004Z,1011.55
2022-10-13T05:25:17.003Z,1011.51
2022-10-13T05:26:16.977Z,1011.55
2022-10-13T05:27:16.972Z,1011.48
2022-10-13T05:28:17.081Z,1011.45
2022-10-13T05:29:16.947Z,1011.46
2022-10-13T05:30:16.943Z,1011.46
2022-10-13T05:31:31.723Z,1011.50
2022-10-13T05:32:24.989Z,1011.47
2022-10-13T05:33:16.926Z,1011.48
2022-10-13T05:34:16.902Z,1011.45
2022-10-13T05:35:16.865Z,1011.51
2022-10-13T05:36:16.881Z,1011.47
2022-10-13T05:37:16.873Z,1011.48
2022-10-13T05:38:16.864Z,1011.50
2022-10-13T05:39:16.844Z,1011.48
2022-10-13T05:40:16.836Z,1011.35
2022-10-13T05:41:16.804Z,1011.29
2022-10-13T05:42:17.017Z,1011.28
2022-10-13T05:43:16.799Z,1011.30
2022-10-13T05:44:16.786Z,1011.39
2022-10-13T05:45:16.784Z,1011.37
2022-10-13T05:46:16.768Z,1011.30
2022-10-13T05:47:16.747Z,1011.21
2022-10-13T05:48:16.755Z,1011.28
2022-10-13T05:49:16.727Z,1011.37
2022-10-13T05:50:16.703Z,1011.36
2022-10-13T05:51:16.704Z,1011.35
2022-10-13T05:52:17.021Z,1011.32
2022-10-13T05:53:16.692Z,1011.34
2022-10-13T05:54:16.691Z,1011.35
2022-10-13T05:55:16.834Z,1011.32
2022-10-13T05:56:16.639Z,1011.29
2022-10-13T05:57:16.637Z,1011.27
2022-10-13T05:58:16.638Z,1011.29
2022-10-13T05:59:16.628Z,1011.24
2022-10-13T06:00:16.634Z,1011.20
2022-10-13T06:01:16.595Z,1011.16
2022-10-13T06:02:16.757Z,1011.17
2022-10-13T06:03:16.577Z,1011.19
2022-10-13T06:04:16.571Z,1011.21
2022-10-13T06:05:16.549Z,1011.23
2022-10-13T06:06:16.546Z,1011.26
2022-10-13T06:07:16.548Z,1011.23
2022-10-13T06:08:16.568Z,1011.22
2022-10-13T06:09:16.507Z,1011.23
2022-10-13T06:10:16.490Z,1011.19
2022-10-13T06:11:16.477Z,1011.21
2022-10-13T06:12:16.487Z,1011.20
2022-10-13T06:13:16.484Z,1011.23
2022-10-13T06:14:16.466Z,1011.25
2022-10-13T06:15:16.456Z,1011.23
2022-10-13T06:16:16.424Z,1011.27
2022-10-13T06:17:16.421Z,1011.33
2022-10-13T06:18:16.405Z,1011.31
2022-10-13T06:19:16.426Z,1011.28
2022-10-13T06:20:16.386Z,1011.27
2022-10-13T06:21:16.365Z,1011.22
2022-10-13T06:22:16.376Z,1011.25
2022-10-13T06:23:16.347Z,1011.25
2022-10-13T06:24:16.360Z,1011.22
2022-10-13T06:25:16.355Z,1011.22
2022-10-13T06:26:16.301Z,1011.28
2022-10-13T06:27:16.303Z,1011.23
2022-10-13T06:28:16.398Z,1011.25
2022-10-13T06:29:16.262Z,1011.24
2022-10-13T06:30:16.262Z,1011.22
2022-10-13T06:31:16.278Z,1011.20
2022-10-13T06:32:16.246Z,1011.18
2022-10-13T06:33:16.226Z,1011.24
2022-10-13T06:34:16.209Z,1011.21
2022-10-13T06:35:16.213Z,1011.21
2022-10-13T06:36:16.229Z,1011.24
2022-10-13T06:37:16.196Z,1011.19
2022-10-13T06:38:16.212Z,1011.15
2022-10-13T06:39:16.157Z,1011.14
2022-10-13T06:40:16.213Z,1011.12
2022-10-13T06:41:16.149Z,1011.15
2022-10-13T06:42:16.140Z,1011.18
2022-10-13T06:43:16.126Z,1011.17
2022-10-13T06:44:16.114Z,1011.11
2022-10-13T06:45:16.091Z,1011.07
2022-10-13T06:46:16.112Z,1011.02
2022-10-13T06:47:16.073Z,1011.02
2022-10-13T06:48:16.089Z,1011.06
2022-10-13T06:49:16.058Z,1011.16
2022-10-13T06:50:16.050Z,1011.20
2022-10-13T06:51:16.070Z,1011.22
2022-10-13T06:52:16.058Z,1011.24
2022-10-13T06:53:16.037Z,1011.20
2022-10-13T06:54:16.000Z,1011.20
2022-10-13T06:55:15.990Z,1011.22
2022-10-13T06:56:16.022Z,1011.24
2022-10-13T06:57:15.954Z,1011.23
2022-10-13T06:58:15.944Z,1011.26
2022-10-13T06:59:15.941Z,1011.22
2022-10-13T07:00:15.920Z,1011.18
2022-10-13T07:01:15.921Z,1011.19
2022-10-13T07:02:15.934Z,1011.18
2022-10-13T07:03:15.879Z,1011.17
2022-10-13T07:04:15.877Z,1011.23
2022-10-13T07:05:15.899Z,1011.23
2022-10-13T07:06:15.857Z,1011.25
2022-10-13T07:07:15.877Z,1011.23
2022-10-13T07:08:15.842Z,1011.21
2022-10-13T07:09:15.836Z,1011.25
2022-10-13T07:10:15.813Z,1011.31
2022-10-13T07:11:16.577Z,1011.32
2022-10-13T07:12:15.858Z,1011.32
2022-10-13T07:13:15.890Z,1011.33
2022-10-13T07:14:15.783Z,1011.30
2022-10-13T07:15:15.773Z,1011.27
2022-10-13T07:16:15.779Z,1011.22
2022-10-13T07:17:15.755Z,1011.26
2022-10-13T07:18:15.744Z,1011.20
2022-10-13T07:19:15.712Z,1011.18
2022-10-13T07:20:15.694Z,1011.15
2022-10-13T07:21:15.723Z,1011.16
2022-10-13T07:22:15.697Z,1011.13
2022-10-13T07:23:15.669Z,1011.13
2022-10-13T07:24:15.662Z,1011.16
2022-10-13T07:25:15.649Z,1011.24
2022-10-13T07:26:15.636Z,1011.22
2022-10-13T07:27:15.633Z,1011.21
2022-10-13T07:28:15.701Z,1011.17
2022-10-13T07:29:15.592Z,1011.19
2022-10-13T07:30:15.594Z,1011.20
2022-10-13T07:31:15.570Z,1011.27
2022-10-13T07:32:15.578Z,1011.29
2022-10-13T07:33:15.566Z,1011.28
2022-10-13T07:34:15.548Z,1011.25
2022-10-13T07:35:15.544Z,1011.26
2022-10-13T07:36:15.546Z,1011.27
2022-10-13T07:37:15.515Z,1011.33
2022-10-13T07:38:15.493Z,1011.34
2022-10-13T07:39:15.479Z,1011.28
2022-10-13T07:40:15.511Z,1011.34
2022-10-13T07:41:15.474Z,1011.31
2022-10-13T07:42:15.451Z,1011.29
2022-10-13T07:43:15.431Z,1011.31
2022-10-13T07:44:15.512Z,1011.28
2022-10-13T07:45:15.454Z,1011.28
2022-10-13T07:46:15.434Z,1011.29
2022-10-13T07:47:15.395Z,1011.28
2022-10-13T07:48:15.448Z,1011.27
2022-10-13T07:49:16.376Z,1011.31
2022-10-13T07:50:15.394Z,1011.27
2022-10-13T07:51:15.834Z,1011.28
2022-10-13T07:52:15.330Z,1011.29
2022-10-13T07:53:15.327Z,1011.30
2022-10-13T07:54:15.331Z,1011.34
2022-10-13T07:55:15.324Z,1011.27
2022-10-13T07:56:15.405Z,1011.28
2022-10-13T07:57:15.272Z,1011.32
2022-10-13T07:58:15.259Z,1011.29
2022-10-13T07:59:15.274Z,1011.27
2022-10-13T08:00:15.299Z,1011.26
2022-10-13T08:01:15.345Z,1011.28
2022-10-13T08:02:15.229Z,1011.28
2022-10-13T08:03:15.208Z,1011.25
2022-10-13T08:04:15.237Z,1011.29
2022-10-13T08:05:15.198Z,1011.25
2022-10-13T08:06:15.205Z,1011.25
2022-10-13T08:07:15.165Z,1011.26
2022-10-13T08:08:15.181Z,1011.22
2022-10-13T08:09:15.149Z,1011.16
2022-10-13T08:10:15.221Z,1011.04
2022-10-13T08:11:16.722Z,1011.00
2022-10-13T08:12:15.109Z,1011.00
2022-10-13T08:13:15.133Z,1011.01
2022-10-13T08:14:15.087Z,1011.02
2022-10-13T08:15:15.094Z,1011.02
2022-10-13T08:16:15.153Z,1010.98
2022-10-13T08:17:15.045Z,1010.96
2022-10-13T08:18:15.063Z,1011.02
2022-10-13T08:19:15.059Z,1010.98
2022-10-13T08:20:15.027Z,1010.97
2022-10-13T08:22:16.016Z,1010.97
2022-10-13T08:23:15.000Z,1011.03
2022-10-13T08:24:14.998Z,1011.06
2022-10-13T08:25:15.025Z,1011.06
2022-10-13T08:26:14.965Z,1011.06
2022-10-13T08:27:14.932Z,1011.01
2022-10-13T08:28:14.956Z,1011.02
2022-10-13T08:29:23.853Z,1011.04
2022-10-13T08:30:15.984Z,1011.05
2022-10-13T08:31:15.138Z,1011.06
2022-10-13T08:32:14.917Z,1011.08
2022-10-13T08:33:14.880Z,1011.08
2022-10-13T08:34:14.888Z,1011.03
2022-10-13T08:35:14.859Z,1011.04
2022-10-13T08:36:14.859Z,1011.02
2022-10-13T08:37:14.842Z,1010.98
2022-10-13T08:38:14.830Z,1010.98
2022-10-13T08:39:14.833Z,1011.01
2022-10-13T08:40:14.806Z,1011.02
2022-10-13T08:41:14.791Z,1011.06
2022-10-13T08:42:14.770Z,1011.11
2022-10-13T08:43:14.812Z,1011.05
2022-10-13T08:44:56.623Z,1011.03
2022-10-13T08:45:39.780Z,1011.00
2022-10-13T08:46:15.785Z,1010.96
2022-10-13T08:47:14.716Z,1010.95
2022-10-13T08:48:14.730Z,1010.98
2022-10-13T08:49:14.690Z,1010.94
2022-10-13T08:50:14.718Z,1010.94
2022-10-13T08:51:14.703Z,1010.96
2022-10-13T08:52:14.872Z,1010.97
2022-10-13T08:53:14.652Z,1010.96
2022-10-13T08:54:14.640Z,1010.91
2022-10-13T08:55:14.659Z,1010.97
2022-10-13T08:56:14.659Z,1010.94
2022-10-13T08:57:14.626Z,1010.92
2022-10-13T08:58:14.609Z,1010.85
2022-10-13T08:59:14.588Z,1010.80
2022-10-13T09:00:14.608Z,1010.80
2022-10-13T09:01:14.649Z,1010.81
2022-10-13T09:02:14.568Z,1010.82
2022-10-13T09:03:14.540Z,1010.85
2022-10-13T09:04:14.593Z,1010.79
2022-10-13T09:05:14.529Z,1010.79
2022-10-13T09:06:14.513Z,1010.81
2022-10-13T09:07:14.846Z,1010.77
2022-10-13T09:08:14.477Z,1010.73
2022-10-13T09:09:14.479Z,1010.73
2022-10-13T09:10:15.485Z,1010.72
2022-10-13T09:11:14.473Z,1010.70
2022-10-13T09:12:14.451Z,1010.71
2022-10-13T09:13:14.445Z,1010.73
2022-10-13T09:14:15.307Z,1010.73
2022-10-13T09:15:14.446Z,1010.75
2022-10-13T09:16:14.418Z,1010.73
2022-10-13T09:18:14.396Z,1010.72
2022-10-13T09:19:14.860Z,1010.71
2022-10-13T09:20:14.389Z,1010.76
2022-10-13T09:21:14.361Z,1010.74
2022-10-13T09:22:15.360Z,1010.74
2022-10-13T09:23:15.313Z,1010.72
2022-10-13T09:24:14.301Z,1010.79
2022-10-13T09:25:14.446Z,1010.76
2022-10-13T09:26:14.824Z,1010.71
2022-10-13T09:27:14.274Z,1010.73
2022-10-13T09:28:14.350Z,1010.73
2022-10-13T09:29:14.315Z,1010.74
2022-10-13T09:30:14.263Z,1010.71
2022-10-13T09:31:14.334Z,1010.68
2022-10-13T09:32:14.219Z,1010.67
2022-10-13T09:33:14.206Z,1010.71
2022-10-13T09:34:14.234Z,1010.67
2022-10-13T09:35:14.817Z,1010.65
2022-10-13T09:36:16.856Z,1010.67
2022-10-13T09:37:14.168Z,1010.68
2022-10-13T09:38:14.153Z,1010.65
2022-10-13T09:39:14.176Z,1010.67
2022-10-13T09:40:14.968Z,1010.66
2022-10-13T09:41:14.131Z,1010.68
2022-10-13T09:42:14.122Z,1010.71
2022-10-13T09:43:14.156Z,1010.69
2022-10-13T09:44:14.106Z,1010.68
2022-10-13T09:45:14.812Z,1010.68
2022-10-13T09:46:15.892Z,1010.71
2022-10-13T09:47:14.044Z,1010.65
2022-10-13T09:48:14.113Z,1010.59
2022-10-13T09:49:14.811Z,1010.63
2022-10-13T09:50:14.093Z,1010.58
2022-10-13T09:51:14.030Z,1010.60
2022-10-13T09:52:14.024Z,1010.58
2022-10-13T09:53:13.991Z,1010.60
2022-10-13T09:54:14.868Z,1010.64
2022-10-13T09:55:13.980Z,1010.64
2022-10-13T09:56:13.947Z,1010.63
2022-10-13T09:57:14.005Z,1010.66
2022-10-13T09:58:13.965Z,1010.64
2022-10-13T09:59:13.937Z,1010.61
2022-10-13T10:00:14.009Z,1010.62
2022-10-13T10:01:14.805Z,1010.61
2022-10-13T10:02:18.005Z,1010.62
2022-10-13T10:03:14.874Z,1010.59
2022-10-13T10:04:14.007Z,1010.55
2022-10-13T10:05:13.872Z,1010.61
2022-10-13T10:06:13.855Z,1010.53
2022-10-13T10:07:13.869Z,1010.46
2022-10-13T10:08:14.897Z,1010.51
2022-10-13T10:09:13.841Z,1010.51
2022-10-13T10:10:13.883Z,1010.49
2022-10-13T10:11:13.863Z,1010.55
2022-10-13T10:12:13.828Z,1010.49
2022-10-13T10:13:13.787Z,1010.51
2022-10-13T10:14:14.371Z,1010.48
2022-10-13T10:15:13.794Z,1010.48
2022-10-13T10:16:14.374Z,1010.49
2022-10-13T10:17:13.842Z,1010.50
2022-10-13T10:18:14.405Z,1010.51
2022-10-13T10:19:14.406Z,1010.51
2022-10-13T10:20:13.974Z,1010.54
2022-10-13T10:21:14.352Z,1010.54
2022-10-13T10:22:13.720Z,1010.53
2022-10-13T10:23:13.988Z,1010.51
2022-10-13T10:24:13.766Z,1010.52
2022-10-13T10:25:13.697Z,1010.49
2022-10-13T10:26:13.842Z,1010.44
2022-10-13T10:27:13.766Z,1010.44
2022-10-13T10:28:13.654Z,1010.43
2022-10-13T10:29:13.670Z,1010.45
2022-10-13T10:30:13.572Z,1010.48
2022-10-13T10:31:13.575Z,1010.44
2022-10-13T10:32:13.592Z,1010.45
2022-10-13T10:33:13.581Z,1010.42
2022-10-13T10:34:15.392Z,1010.44
2022-10-13T10:35:13.532Z,1010.41
2022-10-13T10:36:13.503Z,1010.35
2022-10-13T10:37:13.505Z,1010.39
2022-10-13T10:38:13.553Z,1010.39
2022-10-13T10:39:13.490Z,1010.34
2022-10-13T10:40:13.633Z,1010.31
2022-10-13T10:41:13.444Z,1010.26
2022-10-13T10:42:13.443Z,1010.24
2022-10-13T10:43:13.430Z,1010.28
2022-10-13T10:44:13.878Z,1010.25
2022-10-13T10:45:14.448Z,1010.26
2022-10-13T10:46:13.424Z,1010.24
2022-10-13T10:47:13.395Z,1010.22
2022-10-13T10:48:13.397Z,1010.22
2022-10-13T10:49:13.358Z,1010.14
2022-10-13T10:50:13.408Z,1010.18
2022-10-13T10:51:13.366Z,1010.19
2022-10-13T10:52:13.345Z,1010.18
2022-10-13T10:53:13.327Z,1010.11
2022-10-13T10:54:13.321Z,1010.11
2022-10-13T10:55:13.333Z,1010.11
2022-10-13T10:56:13.326Z,1010.08
2022-10-13T10:57:13.276Z,1010.09
2022-10-13T10:58:13.286Z,1010.08
2022-10-13T10:59:13.264Z,1010.07
2022-10-13T11:00:13.486Z,1010.07
2022-10-13T11:01:13.302Z,1010.02
2022-10-13T11:02:13.232Z,1009.98
2022-10-13T11:03:13.235Z,1010.00
2022-10-13T11:04:13.245Z,1009.97
2022-10-13T11:05:13.189Z,1009.98
2022-10-13T11:06:13.183Z,1009.99
2022-10-13T11:07:13.171Z,1009.96
2022-10-13T11:08:13.178Z,1009.95
2022-10-13T11:09:13.160Z,1009.94
2022-10-13T11:10:13.155Z,1009.96
2022-10-13T11:11:13.127Z,1009.93
2022-10-13T11:12:13.154Z,1009.90
2022-10-13T11:13:13.117Z,1009.90
2022-10-13T11:14:13.121Z,1009.88
2022-10-13T11:15:13.095Z,1009.85
2022-10-13T11:16:13.074Z,1009.83
2022-10-13T11:17:13.084Z,1009.88
2022-10-13T11:18:13.063Z,1009.83
2022-10-13T11:19:13.069Z,1009.89
2022-10-13T11:20:13.046Z,1009.86
2022-10-13T11:21:13.358Z,1009.83
2022-10-13T11:22:13.000Z,1009.85
2022-10-13T11:23:13.013Z,1009.85
2022-10-13T11:24:12.976Z,1009.88
2022-10-13T11:25:12.984Z,1009.85
2022-10-13T11:26:12.988Z,1009.86
2022-10-13T11:27:12.954Z,1009.85
2022-10-13T11:28:13.024Z,1009.86
2022-10-13T11:29:12.956Z,1009.85
2022-10-13T11:30:12.926Z,1009.84
2022-10-13T11:31:12.914Z,1009.86
2022-10-13T11:32:12.919Z,1009.81
2022-10-13T11:33:12.924Z,1009.80
2022-10-13T11:34:12.895Z,1009.79
2022-10-13T11:35:12.887Z,1009.80
2022-10-13T11:36:13.888Z,1009.77
2022-10-13T11:37:12.847Z,1009.79
2022-10-13T11:38:17.618Z,1009.78
2022-10-13T11:39:13.829Z,1009.73
2022-10-13T11:40:12.815Z,1009.72
2022-10-13T11:41:12.828Z,1009.75
2022-10-13T11:42:12.812Z,1009.71
2022-10-13T11:43:12.827Z,1009.78
2022-10-13T11:44:12.790Z,1009.76
2022-10-13T11:45:12.751Z,1009.75
2022-10-13T11:46:12.758Z,1009.66
2022-10-13T11:47:12.744Z,1009.61
2022-10-13T11:48:12.758Z,1009.64
2022-10-13T11:49:12.717Z,1009.60
2022-10-13T11:50:12.719Z,1009.60
2022-10-13T11:51:15.544Z,1009.54
2022-10-13T11:52:12.695Z,1009.48
2022-10-13T11:53:12.684Z,1009.49
2022-10-13T11:54:12.663Z,1009.46
2022-10-13T11:55:12.653Z,1009.47
2022-10-13T11:56:12.640Z,1009.44
2022-10-13T11:57:12.647Z,1009.52
2022-10-13T11:58:12.613Z,1009.44
2022-10-13T11:59:12.603Z,1009.52
2022-10-13T12:00:12.649Z,1009.48
2022-10-13T12:01:12.618Z,1009.41
2022-10-13T12:02:12.596Z,1009.40
2022-10-13T12:03:12.643Z,1009.34
2022-10-13T12:04:12.583Z,1009.39
2022-10-13T12:05:12.560Z,1009.33
2022-10-13T12:06:12.544Z,1009.28
2022-10-13T12:07:13.327Z,1009.32